Mudcat — WCY8255 — position and weather

sailwx.info

Track history (hours):
 
Tides and Currents Weather Stations Pressure Air Temp Water Temp Dewpoint Dewpoint Depression Visibility Wind Speed Wind Dir Waves Ship Positions

Mudcat

Owner: TAURUS MARINE, SAN FRANCISCO, CA. More information available from US FCC via Universal Licensing System and Coast Guard Vessel Documentation Center.

Last reported at 2016-Apr-04 18:33 UTC. Time now 2016-Jun-26 22:50 UTC.
Position N 47°34' W 122°21'.
Warning: this ship's position is months out of date.

Length 22 m; draft 2 m.

Type: Tug. MMSI: 366969750.

Date/timePositionNaut miles runAvg speedWind from/ knotsBaromVisibWave heightAir tempDewpointWater temp
2016-Apr-04 18:33N 47°34' W 122°21'0 0.0
2016-Apr-04 17:34N 47°34' W 122°21'0 0.0
2016-Apr-04 16:33N 47°34' W 122°21'0 0.0
2016-Apr-04 15:33N 47°34' W 122°21'0 0.5
2016-Apr-04 14:33N 47°34' W 122°21'3 3.4
2016-Apr-04 13:33N 47°37' W 122°24'3 3.1
2016-Apr-04 12:33N 47°40' W 122°24'3 0.1
2016-Apr-03 15:28N 47°39' W 122°20'0 0.0
2016-Apr-01 20:34N 47°39' W 122°20'0 0.0
2016-Apr-01 17:33N 47°39' W 122°20'0 0.0
2016-Mar-30 16:33N 47°39' W 122°20'0 0.0
2016-Mar-30 15:33N 47°39' W 122°20'0 0.0
2016-Mar-29 23:04N 47°39' W 122°20'0 0.0
2016-Mar-29 22:33N 47°39' W 122°20'0 0.1
2016-Mar-29 21:33N 47°39' W 122°20'  
2016-Mar-25 19:33N 47°39' W 122°20'2 2.3
2016-Mar-25 18:33N 47°40' W 122°23'  
Track history (hours):
 
Tides and Currents Weather Stations Pressure Air Temp Water Temp Dewpoint Dewpoint Depression Visibility Wind Speed Wind Dir Waves Ship Positions

Mudcat

Owner: TAURUS MARINE, SAN FRANCISCO, CA. More information available from US FCC via Universal Licensing System and Coast Guard Vessel Documentation Center.

Last reported at 2016-Apr-04 18:33 UTC. Time now 2016-Jun-26 22:50 UTC.
Position N 47°34' W 122°21'.
Warning: this ship's position is months out of date.

Length 22 m; draft 2 m.

Type: Tug. MMSI: 366969750.

Date/timePositionNaut miles runAvg speedWind from/ knotsBaromVisibWave heightAir tempDewpointWater temp
2016-Apr-04 18:33N 47°34' W 122°21'0 0.0
2016-Apr-04 17:34N 47°34' W 122°21'0 0.0
2016-Apr-04 16:33N 47°34' W 122°21'0 0.0
2016-Apr-04 15:33N 47°34' W 122°21'0 0.5
2016-Apr-04 14:33N 47°34' W 122°21'3 3.4
2016-Apr-04 13:33N 47°37' W 122°24'3 3.1
2016-Apr-04 12:33N 47°40' W 122°24'3 0.1
2016-Apr-03 15:28N 47°39' W 122°20'0 0.0
2016-Apr-01 20:34N 47°39' W 122°20'0 0.0
2016-Apr-01 17:33N 47°39' W 122°20'0 0.0
2016-Mar-30 16:33N 47°39' W 122°20'0 0.0
2016-Mar-30 15:33N 47°39' W 122°20'0 0.0
2016-Mar-29 23:04N 47°39' W 122°20'0 0.0
2016-Mar-29 22:33N 47°39' W 122°20'0 0.1
2016-Mar-29 21:33N 47°39' W 122°20'  
2016-Mar-25 19:33N 47°39' W 122°20'2 2.3
2016-Mar-25 18:33N 47°40' W 122°23'  

Dump ship's entire track history